createdAt,value
2022-08-24T00:01:18.091Z,98765.81
2022-08-24T00:03:48.678Z,98757.84
2022-08-24T00:06:25.987Z,98763.38
2022-08-24T00:08:56.434Z,98755.16
2022-08-24T00:11:27.232Z,98765.69
2022-08-24T00:13:56.439Z,98756.28
2022-08-24T00:16:26.270Z,98758.13
2022-08-24T00:18:56.750Z,98753.59
2022-08-24T00:21:26.124Z,98754.78
2022-08-24T00:23:55.579Z,98757.34
2022-08-24T00:26:29.121Z,98746.06
2022-08-24T00:29:04.165Z,98754.78
2022-08-24T00:31:36.091Z,98753.00
2022-08-24T00:34:04.387Z,98752.81
2022-08-24T00:36:33.073Z,98752.63
2022-08-24T00:39:01.177Z,98744.16
2022-08-24T00:41:30.378Z,98750.22
2022-08-24T00:44:06.021Z,98753.50
2022-08-24T00:46:44.131Z,98753.22
2022-08-24T00:49:30.517Z,98753.41
2022-08-24T00:52:06.204Z,98755.09
2022-08-24T00:54:45.935Z,98755.91
2022-08-24T00:57:19.386Z,98753.31
2022-08-24T01:00:00.407Z,98751.78
2022-08-24T01:02:34.392Z,98752.75
2022-08-24T01:05:06.916Z,98760.25
2022-08-24T01:07:36.008Z,98763.50
2022-08-24T01:10:08.059Z,98759.72
2022-08-24T01:12:39.633Z,98754.66
2022-08-24T01:15:12.208Z,98757.34
2022-08-24T01:17:59.086Z,98759.59
2022-08-24T01:20:28.724Z,98758.41
2022-08-24T01:23:06.968Z,98763.41
2022-08-24T01:25:39.343Z,98761.00
2022-08-24T01:28:14.735Z,98758.53
2022-08-24T01:30:45.938Z,98764.66
2022-08-24T01:33:26.326Z,98761.00
2022-08-24T01:36:01.530Z,98764.66
2022-08-24T01:38:33.125Z,98760.31
2022-08-24T01:41:05.789Z,98764.34
2022-08-24T01:43:37.308Z,98770.22
2022-08-24T01:46:09.558Z,98773.13
2022-08-24T01:48:38.580Z,98780.19
2022-08-24T01:51:08.089Z,98773.84
2022-08-24T01:53:38.128Z,98772.28
2022-08-24T01:56:09.263Z,98773.16
2022-08-24T01:58:46.004Z,98778.00
2022-08-24T02:01:17.603Z,98783.53
2022-08-24T02:03:47.235Z,98780.34
2022-08-24T02:06:21.768Z,98781.75
2022-08-24T02:08:50.927Z,98782.09
2022-08-24T02:11:24.610Z,98786.91
2022-08-24T02:13:54.541Z,98785.16
2022-08-24T02:16:27.767Z,98787.91
2022-08-24T02:18:57.583Z,98790.13
2022-08-24T02:21:27.174Z,98792.78
2022-08-24T02:23:56.438Z,98785.69
2022-08-24T02:26:31.432Z,98796.63
2022-08-24T02:29:03.512Z,98797.59
2022-08-24T02:31:34.763Z,98796.88
2022-08-24T02:34:03.041Z,98793.78
2022-08-24T02:36:31.849Z,98797.50
2022-08-24T02:39:00.654Z,98794.88
2022-08-24T02:41:31.096Z,98800.22
2022-08-24T02:44:00.107Z,98792.66
2022-08-24T02:46:32.246Z,98799.78
2022-08-24T02:49:11.729Z,98795.28
2022-08-24T02:51:47.696Z,98791.84
2022-08-24T02:54:20.482Z,98787.34
2022-08-24T02:56:54.261Z,98786.94
2022-08-24T02:59:25.117Z,98787.63
2022-08-24T03:01:55.292Z,98781.81
2022-08-24T03:04:26.983Z,98789.97
2022-08-24T03:06:57.321Z,98791.72
2022-08-24T03:09:28.809Z,98783.25
2022-08-24T03:12:01.600Z,98778.38
2022-08-24T03:14:30.641Z,98770.28
2022-08-24T03:17:02.089Z,98776.56
2022-08-24T03:19:31.794Z,98766.06
2022-08-24T03:22:01.269Z,98769.78
2022-08-24T03:24:34.051Z,98777.34
2022-08-24T03:27:05.698Z,98786.97
2022-08-24T03:29:35.322Z,98778.06
2022-08-24T03:32:06.794Z,98791.84
2022-08-24T03:34:36.086Z,98780.31
2022-08-24T03:37:05.584Z,98779.56
2022-08-24T03:39:34.974Z,98774.78
2022-08-24T03:42:05.185Z,98779.31
2022-08-24T03:44:34.368Z,98773.81
2022-08-24T03:47:03.165Z,98778.09
2022-08-24T03:49:33.158Z,98782.28
2022-08-24T03:52:02.068Z,98775.84
2022-08-24T03:54:32.187Z,98783.34
2022-08-24T03:57:02.586Z,98785.41
2022-08-24T03:59:33.369Z,98784.84
2022-08-24T04:02:10.491Z,98782.94
2022-08-24T04:04:44.331Z,98786.41
2022-08-24T04:07:13.746Z,98785.16
2022-08-24T04:09:43.081Z,98787.16
2022-08-24T04:12:15.482Z,98786.22
2022-08-24T04:14:45.467Z,98788.38
2022-08-24T04:17:18.011Z,98792.47
2022-08-24T04:19:58.871Z,98781.16
2022-08-24T04:22:38.718Z,98792.41
2022-08-24T04:25:09.938Z,98793.00
2022-08-24T04:27:41.062Z,98788.75
2022-08-24T04:30:14.598Z,98790.84
2022-08-24T04:33:03.738Z,98802.13
2022-08-24T04:35:33.688Z,98796.06
2022-08-24T04:38:05.813Z,98803.06
2022-08-24T04:40:34.576Z,98812.38
2022-08-24T04:43:06.826Z,98814.19
2022-08-24T04:45:40.339Z,98814.56
2022-08-24T04:48:10.174Z,98809.03
2022-08-24T04:50:39.922Z,98810.84
2022-08-24T04:53:09.247Z,98812.00
2022-08-24T04:55:45.464Z,98815.56
2022-08-24T04:58:15.981Z,98817.75
2022-08-24T05:00:47.880Z,98819.31
2022-08-24T05:03:17.577Z,98818.91
2022-08-24T05:05:51.830Z,98815.38
2022-08-24T05:08:22.264Z,98822.38
2022-08-24T05:10:52.205Z,98826.84
2022-08-24T05:13:22.954Z,98830.63
2022-08-24T05:15:53.663Z,98824.72
2022-08-24T05:18:22.031Z,98820.13
2022-08-24T05:20:50.578Z,98819.50
2022-08-24T05:23:20.805Z,98819.72
2022-08-24T05:25:50.477Z,98820.00
2022-08-24T05:28:19.719Z,98817.22
2022-08-24T05:30:48.399Z,98820.28
2022-08-24T05:33:21.616Z,98821.47
2022-08-24T05:35:50.435Z,98814.94
2022-08-24T05:38:19.605Z,98826.34
2022-08-24T05:40:49.165Z,98832.66
2022-08-24T05:43:18.385Z,98831.66
2022-08-24T05:45:47.411Z,98830.03
2022-08-24T05:48:16.512Z,98829.66
2022-08-24T05:51:09.666Z,98830.34
2022-08-24T05:53:46.920Z,98834.72
2022-08-24T05:56:18.761Z,98835.06
2022-08-24T05:58:47.955Z,98838.06
2022-08-24T06:01:19.110Z,98841.41
2022-08-24T06:03:47.543Z,98843.09
2022-08-24T06:06:19.201Z,98841.69
2022-08-24T06:08:51.332Z,98845.06
2022-08-24T06:11:29.801Z,98848.38
2022-08-24T06:14:02.647Z,98845.66
2022-08-24T06:16:38.168Z,98849.63
2022-08-24T06:19:08.632Z,98846.72
2022-08-24T06:21:39.379Z,98848.66
2022-08-24T06:24:11.532Z,98851.66
2022-08-24T06:26:56.920Z,98854.97
2022-08-24T06:29:26.234Z,98852.56
2022-08-24T06:32:05.514Z,98846.69
2022-08-24T06:34:35.261Z,98847.66
2022-08-24T06:37:07.033Z,98846.53
2022-08-24T06:39:36.810Z,98851.56
2022-08-24T06:42:06.347Z,98843.94
2022-08-24T06:44:34.650Z,98854.06
2022-08-24T06:47:12.557Z,98848.75
2022-08-24T06:49:42.574Z,98849.09
2022-08-24T06:52:15.069Z,98850.25
2022-08-24T06:54:44.329Z,98852.09
2022-08-24T06:57:13.590Z,98849.69
2022-08-24T06:59:43.227Z,98858.44
2022-08-24T07:02:16.357Z,98856.44
2022-08-24T07:04:47.368Z,98860.03
2022-08-24T07:07:47.319Z,98854.78
2022-08-24T07:10:17.515Z,98858.81
2022-08-24T07:12:53.407Z,98851.03
2022-08-24T07:15:23.659Z,98864.56
2022-08-24T07:18:05.067Z,98870.34
2022-08-24T07:20:35.589Z,98863.38
2022-08-24T07:23:15.139Z,98868.03
2022-08-24T07:25:49.555Z,98866.84
2022-08-24T07:28:31.788Z,98864.41
2022-08-24T07:31:02.995Z,98864.34
2022-08-24T07:33:37.579Z,98870.28
2022-08-24T07:36:07.895Z,98872.22
2022-08-24T07:38:39.350Z,98878.22
2022-08-24T07:41:36.650Z,98870.66
2022-08-24T07:43:57.146Z,98873.25
2022-08-24T07:46:26.873Z,98878.00
2022-08-24T07:49:10.960Z,98885.03
2022-08-24T07:51:44.760Z,98878.09
2022-08-24T07:54:17.446Z,98878.66
2022-08-24T07:56:46.976Z,98884.75
2022-08-24T07:59:16.415Z,98877.00
2022-08-24T08:01:45.805Z,98876.63
2022-08-24T08:04:16.840Z,98882.84
2022-08-24T08:06:46.651Z,98879.22
2022-08-24T08:09:17.479Z,98879.28
2022-08-24T08:11:46.716Z,98876.38
2022-08-24T08:14:17.771Z,98868.88
2022-08-24T08:16:46.726Z,98875.59
2022-08-24T08:19:14.931Z,98878.47
2022-08-24T08:22:03.924Z,98867.50
2022-08-24T08:24:39.489Z,98872.53
2022-08-24T08:27:09.274Z,98864.88
2022-08-24T08:29:41.629Z,98866.31
2022-08-24T08:32:17.078Z,98864.09
2022-08-24T08:34:50.166Z,98859.63
2022-08-24T08:37:20.344Z,98858.97
2022-08-24T08:39:55.384Z,98861.13
2022-08-24T08:42:39.974Z,98860.03
2022-08-24T08:45:23.584Z,98856.91
2022-08-24T08:48:34.656Z,98854.38
2022-08-24T08:51:42.072Z,98845.19
2022-08-24T08:54:30.584Z,98845.28
2022-08-24T08:57:18.999Z,98851.72
2022-08-24T09:00:00.698Z,98845.50
2022-08-24T09:02:51.753Z,98836.22
2022-08-24T09:05:52.486Z,98845.44
2022-08-24T09:08:35.645Z,98851.28
2022-08-24T09:11:13.130Z,98849.13
2022-08-24T09:13:59.635Z,98846.06
2022-08-24T09:17:00.935Z,98840.22
2022-08-24T09:19:52.829Z,98839.31
2022-08-24T09:22:23.884Z,98842.75
2022-08-24T09:25:12.134Z,98847.38
2022-08-24T09:28:14.632Z,98847.25
2022-08-24T09:31:04.991Z,98843.56
2022-08-24T09:33:43.667Z,98833.63
2022-08-24T09:36:20.298Z,98832.41
2022-08-24T09:39:01.544Z,98836.22
2022-08-24T09:42:11.548Z,98830.56
2022-08-24T09:45:01.871Z,98832.47
2022-08-24T09:48:00.567Z,98832.75
2022-08-24T09:51:05.699Z,98832.16
2022-08-24T09:54:00.511Z,98831.03
2022-08-24T09:57:14.197Z,98816.63
2022-08-24T10:00:06.076Z,98833.72
2022-08-24T10:03:04.402Z,98825.78
2022-08-24T10:05:49.431Z,98835.13
2022-08-24T10:08:30.601Z,98827.13
2022-08-24T10:11:12.107Z,98819.59
2022-08-24T10:13:52.086Z,98823.66
2022-08-24T10:16:35.200Z,98818.66
2022-08-24T10:19:20.703Z,98816.94
2022-08-24T10:22:00.224Z,98806.31
2022-08-24T10:24:54.959Z,98805.38
2022-08-24T10:27:41.713Z,98801.97
2022-08-24T10:30:40.559Z,98799.44
2022-08-24T10:33:21.805Z,98800.41
2022-08-24T10:36:09.041Z,98796.69
2022-08-24T10:39:07.335Z,98793.69
2022-08-24T10:42:33.110Z,98793.19
2022-08-24T10:45:17.316Z,98782.50
2022-08-24T10:48:06.025Z,98777.44
2022-08-24T10:53:25.616Z,98770.44
2022-08-24T10:56:09.634Z,98781.34
2022-08-24T10:58:49.161Z,98782.66
2022-08-24T11:01:23.001Z,98783.72
2022-08-24T11:03:55.056Z,98781.47
2022-08-24T11:06:26.025Z,98776.84
2022-08-24T11:08:59.241Z,98780.25
2022-08-24T11:11:31.678Z,98770.09
2022-08-24T11:14:04.212Z,98788.81
2022-08-24T11:16:38.614Z,98792.19
2022-08-24T11:19:10.964Z,98786.53
2022-08-24T11:21:45.201Z,98779.31
2022-08-24T11:24:27.558Z,98782.44
2022-08-24T11:26:59.803Z,98775.75
2022-08-24T11:29:31.781Z,98764.72
2022-08-24T11:32:01.490Z,98766.78
2022-08-24T11:34:38.348Z,98761.88
2022-08-24T11:37:12.078Z,98763.69
2022-08-24T11:39:41.347Z,98755.53
2022-08-24T11:42:19.097Z,98759.22
2022-08-24T11:45:01.707Z,98753.97
2022-08-24T11:47:47.164Z,98749.75
2022-08-24T11:50:27.236Z,98747.66
2022-08-24T11:53:12.108Z,98756.75
2022-08-24T11:55:57.134Z,98749.00
2022-08-24T11:58:39.622Z,98756.91
2022-08-24T12:01:15.246Z,98763.00
2022-08-24T12:03:53.155Z,98761.25
2022-08-24T12:06:36.066Z,98751.03
2022-08-24T12:09:15.247Z,98749.72
2022-08-24T12:11:53.257Z,98750.78
2022-08-24T12:14:29.151Z,98757.72
2022-08-24T12:17:03.628Z,98748.72
2022-08-24T12:19:35.782Z,98742.56
2022-08-24T12:22:07.868Z,98746.41
2022-08-24T12:24:43.570Z,98746.53
2022-08-24T12:27:20.893Z,98736.16
2022-08-24T12:29:55.936Z,98736.44
2022-08-24T12:32:27.470Z,98739.19
2022-08-24T12:35:02.468Z,98736.81
2022-08-24T12:37:35.612Z,98733.03
2022-08-24T12:40:13.438Z,98741.44
2022-08-24T12:42:52.170Z,98736.63
2022-08-24T12:45:23.354Z,98739.69
2022-08-24T12:47:57.833Z,98728.28
2022-08-24T12:50:32.753Z,98732.28
2022-08-24T12:53:34.654Z,98728.06
2022-08-24T12:56:33.699Z,98732.44
2022-08-24T12:59:14.990Z,98730.03
2022-08-24T13:01:46.229Z,98738.03
2022-08-24T13:04:21.169Z,98727.63
2022-08-24T13:06:56.407Z,98727.81
2022-08-24T13:09:34.077Z,98728.09
2022-08-24T13:12:41.872Z,98721.63
2022-08-24T13:15:44.677Z,98720.19
2022-08-24T13:18:52.663Z,98724.09
2022-08-24T13:21:45.366Z,98725.38
2022-08-24T13:24:52.738Z,98714.56
2022-08-24T13:28:08.941Z,98717.47
2022-08-24T13:31:04.551Z,98716.34
2022-08-24T13:33:39.543Z,98710.22
2022-08-24T13:36:48.090Z,98708.97
2022-08-24T13:39:37.038Z,98700.94
2022-08-24T13:42:15.785Z,98706.19
2022-08-24T13:45:20.090Z,98704.84
2022-08-24T13:48:05.559Z,98705.38
2022-08-24T13:50:44.081Z,98704.56
2022-08-24T13:53:44.568Z,98702.53
2022-08-24T13:56:33.656Z,98698.72
2022-08-24T13:59:10.994Z,98703.13
2022-08-24T14:02:04.819Z,98696.34
2022-08-24T14:04:45.348Z,98695.97
2022-08-24T14:07:20.335Z,98693.63
2022-08-24T14:10:08.962Z,98688.31
2022-08-24T14:12:49.993Z,98697.81
2022-08-24T14:15:30.732Z,98689.44
2022-08-24T14:18:11.982Z,98684.59
2022-08-24T14:21:03.903Z,98691.72
2022-08-24T14:23:56.211Z,98686.28
2022-08-24T14:27:02.078Z,98680.63
2022-08-24T14:29:36.560Z,98666.44
2022-08-24T14:32:33.294Z,98680.28
2022-08-24T14:35:20.378Z,98669.94
2022-08-24T14:38:06.290Z,98672.94
2022-08-24T14:40:56.450Z,98663.25
2022-08-24T14:43:34.264Z,98657.69
2022-08-24T14:46:16.396Z,98662.25
2022-08-24T14:48:55.010Z,98662.25
2022-08-24T14:51:49.263Z,98662.94
2022-08-24T14:54:33.381Z,98654.81
2022-08-24T14:57:16.446Z,98649.00
2022-08-24T14:59:58.467Z,98652.75
2022-08-24T15:03:08.222Z,98657.78
2022-08-24T15:05:58.985Z,98650.53
2022-08-24T15:08:42.892Z,98646.50
2022-08-24T15:11:15.602Z,98649.25
2022-08-24T15:13:48.796Z,98643.41
2022-08-24T15:16:23.531Z,98646.00
2022-08-24T15:19:04.624Z,98654.16
2022-08-24T15:21:43.997Z,98648.59
2022-08-24T15:27:02.645Z,98646.97
2022-08-24T15:29:33.005Z,98637.63
2022-08-24T15:32:05.569Z,98636.78
2022-08-24T15:34:45.621Z,98634.88
2022-08-24T15:37:16.464Z,98640.69
2022-08-24T15:39:45.852Z,98639.84
2022-08-24T15:42:18.586Z,98639.00
2022-08-24T15:44:50.582Z,98641.09
2022-08-24T15:47:26.899Z,98641.16
2022-08-24T15:49:59.221Z,98645.63
2022-08-24T15:52:52.188Z,98648.09
2022-08-24T15:55:37.075Z,98646.78
2022-08-24T15:58:30.893Z,98639.00
2022-08-24T16:01:38.460Z,98646.44
2022-08-24T16:04:09.849Z,98652.91
2022-08-24T16:06:45.452Z,98654.25
2022-08-24T16:09:35.788Z,98649.75
2022-08-24T16:12:07.132Z,98648.44
2022-08-24T16:14:40.016Z,98647.59
2022-08-24T16:17:28.150Z,98646.34
2022-08-24T16:20:00.619Z,98647.72
2022-08-24T16:22:33.808Z,98646.75
2022-08-24T16:25:25.683Z,98657.97
2022-08-24T16:28:03.468Z,98648.38
2022-08-24T16:30:47.237Z,98651.03
2022-08-24T16:33:41.984Z,98654.31
2022-08-24T16:36:14.471Z,98649.41
2022-08-24T16:38:49.302Z,98652.75
2022-08-24T16:41:21.352Z,98648.78
2022-08-24T16:43:50.042Z,98647.03
2022-08-24T16:46:22.706Z,98651.00
2022-08-24T16:48:54.305Z,98647.53
2022-08-24T16:51:24.890Z,98649.72
2022-08-24T16:53:54.116Z,98650.94
2022-08-24T16:56:23.792Z,98660.59
2022-08-24T16:58:53.084Z,98660.38
2022-08-24T17:01:23.626Z,98659.06
2022-08-24T17:03:53.510Z,98658.97
2022-08-24T17:06:22.887Z,98655.84
2022-08-24T17:08:51.171Z,98652.53
2022-08-24T17:11:20.873Z,98652.53
2022-08-24T17:13:50.511Z,98653.72
2022-08-24T17:16:21.669Z,98664.25
2022-08-24T17:18:51.171Z,98662.00
2022-08-24T17:21:19.200Z,98662.97
2022-08-24T17:23:48.511Z,98664.44
2022-08-24T17:26:19.371Z,98662.03
2022-08-24T17:28:52.014Z,98663.63
2022-08-24T17:31:20.286Z,98672.75
2022-08-24T17:33:51.684Z,98674.06
2022-08-24T17:36:23.776Z,98672.75
2022-08-24T17:38:57.054Z,98680.00
2022-08-24T17:41:27.678Z,98675.69
2022-08-24T17:43:57.086Z,98681.81
2022-08-24T17:46:26.196Z,98687.19
2022-08-24T17:48:54.105Z,98682.81
2022-08-24T17:51:23.887Z,98689.75
2022-08-24T17:53:55.810Z,98690.69
2022-08-24T17:56:25.127Z,98692.84
2022-08-24T17:59:11.823Z,98698.00
2022-08-24T18:01:40.627Z,98704.81
2022-08-24T18:04:09.379Z,98701.44
2022-08-24T18:06:39.727Z,98695.69
2022-08-24T18:09:11.842Z,98694.03
2022-08-24T18:11:41.322Z,98699.59
2022-08-24T18:14:09.944Z,98705.00
2022-08-24T18:16:39.372Z,98703.28
2022-08-24T18:19:11.999Z,98706.81
2022-08-24T18:21:43.150Z,98705.91
2022-08-24T18:24:11.086Z,98709.31
2022-08-24T18:26:40.148Z,98705.19
2022-08-24T18:29:21.502Z,98703.84
2022-08-24T18:31:51.390Z,98701.88
2022-08-24T18:34:22.775Z,98715.00
2022-08-24T18:36:52.606Z,98718.00
2022-08-24T18:39:21.223Z,98713.03
2022-08-24T18:41:51.573Z,98710.47
2022-08-24T18:44:29.663Z,98722.09
2022-08-24T18:47:01.495Z,98722.34
2022-08-24T18:49:30.769Z,98722.84
2022-08-24T18:52:02.252Z,98728.88
2022-08-24T18:54:36.957Z,98723.09
2022-08-24T18:57:07.124Z,98728.59
2022-08-24T18:59:36.451Z,98727.06
2022-08-24T19:02:31.922Z,98730.41
2022-08-24T19:05:04.093Z,98737.09
2022-08-24T19:07:36.680Z,98735.91
2022-08-24T19:10:07.068Z,98738.78
2022-08-24T19:12:46.637Z,98738.59
2022-08-24T19:15:29.408Z,98743.88
2022-08-24T19:18:06.861Z,98742.91
2022-08-24T19:20:35.380Z,98738.13
2022-08-24T19:23:11.529Z,98739.97
2022-08-24T19:25:42.100Z,98751.88
2022-08-24T19:28:10.064Z,98747.88
2022-08-24T19:30:40.465Z,98744.91
2022-08-24T19:33:13.835Z,98748.94
2022-08-24T19:35:43.573Z,98738.59
2022-08-24T19:38:13.792Z,98748.41
2022-08-24T19:40:47.441Z,98749.03
2022-08-24T19:43:17.384Z,98744.50
2022-08-24T19:46:08.112Z,98749.69
2022-08-24T19:48:39.742Z,98758.28
2022-08-24T19:51:14.034Z,98745.78
2022-08-24T19:53:44.831Z,98750.16
2022-08-24T19:56:14.266Z,98745.38
2022-08-24T19:58:48.563Z,98756.50
2022-08-24T20:01:21.510Z,98756.41
2022-08-24T20:03:50.682Z,98756.75
2022-08-24T20:06:22.853Z,98752.38
2022-08-24T20:08:54.776Z,98753.25
2022-08-24T20:11:25.403Z,98762.03
2022-08-24T20:13:56.318Z,98762.88
2022-08-24T20:16:38.348Z,98764.13
2022-08-24T20:19:07.821Z,98761.19
2022-08-24T20:21:38.106Z,98755.59
2022-08-24T20:24:09.127Z,98754.09
2022-08-24T20:26:42.191Z,98762.84
2022-08-24T20:29:12.341Z,98766.63
2022-08-24T20:31:41.992Z,98773.28
2022-08-24T20:34:11.620Z,98771.41
2022-08-24T20:36:46.370Z,98765.75
2022-08-24T20:39:19.612Z,98771.97
2022-08-24T20:41:47.947Z,98763.28
2022-08-24T20:44:16.747Z,98772.22
2022-08-24T20:46:46.903Z,98764.91
2022-08-24T20:49:17.127Z,98765.53
2022-08-24T20:51:49.504Z,98763.22
2022-08-24T20:54:19.990Z,98764.06
2022-08-24T20:56:50.604Z,98766.94
2022-08-24T20:59:20.050Z,98765.66
2022-08-24T21:01:49.963Z,98767.22
2022-08-24T21:04:18.898Z,98766.38
2022-08-24T21:06:47.898Z,98763.03
2022-08-24T21:09:21.089Z,98760.97
2022-08-24T21:11:50.559Z,98770.06
2022-08-24T21:14:20.757Z,98769.94
2022-08-24T21:16:50.031Z,98765.69
2022-08-24T21:19:19.200Z,98764.09
2022-08-24T21:21:48.847Z,98772.22
2022-08-24T21:24:18.341Z,98770.91
2022-08-24T21:26:49.406Z,98761.72
2022-08-24T21:29:18.289Z,98771.97
2022-08-24T21:32:07.428Z,98771.19
2022-08-24T21:34:41.303Z,98767.00
2022-08-24T21:37:11.934Z,98767.56
2022-08-24T21:39:41.724Z,98771.13
2022-08-24T21:42:12.243Z,98770.75
2022-08-24T21:44:41.490Z,98776.16
2022-08-24T21:47:11.121Z,98779.22
2022-08-24T21:49:41.158Z,98773.50
2022-08-24T21:52:10.500Z,98770.56
2022-08-24T21:54:39.518Z,98773.34
2022-08-24T21:57:08.820Z,98763.78
2022-08-24T21:59:41.567Z,98764.75
2022-08-24T22:02:10.758Z,98760.13
2022-08-24T22:04:42.421Z,98771.97
2022-08-24T22:07:13.098Z,98766.25
2022-08-24T22:09:42.363Z,98764.22
2022-08-24T22:12:10.447Z,98763.16
2022-08-24T22:14:41.249Z,98757.44
2022-08-24T22:17:10.413Z,98761.13
2022-08-24T22:19:39.765Z,98758.91
2022-08-24T22:22:08.644Z,98748.38
2022-08-24T22:24:38.673Z,98757.63
2022-08-24T22:27:08.401Z,98753.47
2022-08-24T22:29:36.507Z,98752.19
2022-08-24T22:32:07.417Z,98752.72
2022-08-24T22:34:37.777Z,98754.81
2022-08-24T22:37:07.535Z,98763.69
2022-08-24T22:39:36.936Z,98750.78
2022-08-24T22:42:06.197Z,98753.41
2022-08-24T22:44:35.813Z,98761.22
2022-08-24T22:51:14.324Z,98760.41
2022-08-24T22:58:07.767Z,98744.50
2022-08-24T23:00:37.135Z,98742.34
2022-08-24T23:03:06.207Z,98741.78
2022-08-24T23:05:35.414Z,98744.13
2022-08-24T23:08:06.651Z,98746.16
2022-08-24T23:10:36.123Z,98741.63
2022-08-24T23:13:05.129Z,98743.38
2022-08-24T23:15:34.197Z,98736.66
2022-08-24T23:18:23.440Z,98742.66
2022-08-24T23:20:51.183Z,98737.78
2022-08-24T23:23:21.426Z,98732.50
2022-08-24T23:25:50.481Z,98734.56
2022-08-24T23:28:19.629Z,98741.16
2022-08-24T23:30:48.743Z,98730.19
2022-08-24T23:33:17.487Z,98732.97
2022-08-24T23:35:46.397Z,98739.16
2022-08-24T23:38:15.576Z,98737.91
2022-08-24T23:40:46.615Z,98743.94
2022-08-24T23:43:16.600Z,98744.50
2022-08-24T23:45:45.780Z,98733.25
2022-08-24T23:48:15.541Z,98733.59
2022-08-24T23:50:46.920Z,98731.28
2022-08-24T23:53:16.489Z,98725.31
2022-08-24T23:55:47.969Z,98724.22
2022-08-24T23:58:17.104Z,98729.00
